EW9681 Weather Reports


Display with metric or nautical units.
time (UTC)temp
F
wind
direction
speed
MPH
gust
MPH
rain 1hr
in
rain 24hr
in
rain mn
in
humidity
%
barometer
mb
20190325044235 44 299 0.0 0.0 0.00 0.00 0.00 86 1017.8
20190325043730 44 299 0.0 0.0 0.00 0.00 0.00 86 1017.7
20190325043224 44 299 0.0 0.0 0.00 0.00 0.00 86 1017.8
20190325042714 44 299 0.0 0.0 0.00 0.00 0.00 85 1017.8
20190325042210 44 299 0.0 0.0 0.00 0.00 0.00 86 1017.9
20190325041710 44 299 0.0 0.0 0.00 0.00 0.00 85 1017.9
20190325041210 44 299 0.0 0.0 0.00 0.00 0.00 85 1017.8
20190325040703 44 299 0.0 0.0 0.00 0.00 0.00 84 1017.8
20190325040158 44 299 0.0 0.0 0.00 0.00 0.00 84 1017.8
20190325035652 44 299 0.0 0.0 0.00 0.00 0.00 84 1017.8
20190325035147 45 299 0.0 0.0 0.00 0.00 0.00 84 1017.9
20190325034642 45 299 0.0 0.0 0.00 0.00 0.00 84 1017.9
20190325034139 45 299 0.0 0.0 0.00 0.00 0.00 84 1017.9
20190325033634 45 299 0.0 0.0 0.00 0.00 0.00 84 1018.0
20190325033128 45 299 0.0 0.0 0.00 0.00 0.00 83 1018.1
20190325032623 45 299 0.0 0.0 0.00 0.00 0.00 82 1018.1
20190325032120 45 299 0.0 0.0 0.00 0.00 0.00 81 1018.1
20190325031612 45 299 0.0 0.0 0.00 0.00 0.00 80 1018.2
20190325031115 46 299 0.0 0.0 0.00 0.00 0.00 79 1018.2
20190325030606 46 299 0.0 0.0 0.00 0.00 0.00 79 1018.2
20190325030110 46 299 0.0 0.0 0.00 0.00 0.00 78 1018.3
20190325025554 46 299 0.0 0.0 0.00 0.00 0.00 78 1018.3
20190325025103 46 299 0.0 0.0 0.00 0.00 0.00 76 1018.4
20190325024547 46 299 0.0 0.0 0.00 0.00 0.00 75 1018.4
20190325024043 46 299 0.0 0.0 0.00 0.00 0.00 75 1018.4
20190325023538 47 299 0.0 0.0 0.00 0.00 0.00 74 1018.7
20190325023036 47 299 0.0 0.0 0.00 0.00 0.00 73 1018.8
20190325022529 47 299 0.0 0.0 0.00 0.00 0.00 72 1018.8
20190325022024 47 299 0.0 3.0 0.00 0.00 0.00 70 1018.9
20190325021518 47 299 0.0 3.0 0.00 0.00 0.00 70 1019.0
20190325021017 47 299 0.0 0.0 0.00 0.00 0.00 70 1019.1
20190325020508 47 299 0.0 4.0 0.00 0.00 0.00 69 1019.1
20190325020013 47 299 2.0 5.0 0.00 0.00 0.00 69 1019.1
20190325015455 48 304 3.0 6.0 0.00 0.00 0.00 68 1019.1
20190325015008 48 316 3.0 7.0 0.00 0.00 0.00 68 1019.0
20190325014440 48 312 3.0 10.0 0.00 0.00 0.00 67 1019.0
20190325013947 48 321 3.0 10.0 0.00 0.00 0.00 67 1019.1
20190325013439 48 308 2.0 6.0 0.00 0.00 0.00 67 1019.1
20190325012941 48 296 2.0 6.0 0.00 0.00 0.00 66 1019.2
20190325012434 48 246 2.0 5.0 0.00 0.00 0.00 67 1019.4
20190325011938 49 226 2.0 5.0 0.00 0.00 0.00 66 1019.3
20190325011435 49 226 2.0 5.0 0.00 0.00 0.00 64 1019.3
20190325010950 49 200 2.0 7.0 0.00 0.00 0.00 63 1019.2
20190325010433 49 237 2.0 7.0 0.00 0.00 0.00 63 1019.2
20190325005937 49 214 5.0 13.0 0.00 0.00 0.00 61 1019.2
20190325005430 49 220 5.0 13.0 0.00 0.00 0.00 60 1019.1
20190325004931 50 201 2.0 9.0 0.00 0.00 0.00 57 1019.0
20190325004431 50 221 1.0 5.0 0.00 0.00 0.00 57 1018.9
20190325003931 50 220 2.0 6.0 0.00 0.00 0.00 58 1018.9
20190325003424 50 282 3.0 7.0 0.00 0.00 0.00 57 1018.8
20190325002925 49 207 4.0 14.0 0.00 0.00 0.00 58 1018.8
20190325002422 50 279 3.0 14.0 0.00 0.00 0.00 59 1018.8
20190325001927 50 304 2.0 8.0 0.00 0.00 0.00 57 1018.8
20190325001415 50 290 3.0 10.0 0.00 0.00 0.00 56 1018.7
20190325000916 51 277 4.0 10.0 0.00 0.00 0.00 55 1018.6
20190325000413 51 224 4.0 9.0 0.00 0.00 0.00 53 1018.6
20190324235924 51 275 4.0 8.0 0.00 0.00 0.00 51 1018.6
20190324235416 51 243 4.0 13.0 0.00 0.00 0.00 49 1018.4
20190324234915 51 225 5.0 13.0 0.00 0.00 0.00 49 1018.4
20190324234414 51 233 4.0 11.0 0.00 0.00 0.00 48 1018.4
20190324233914 52 232 4.0 11.0 0.00 0.00 0.00 47 1018.4
20190324233412 52 228 4.0 12.0 0.00 0.00 0.00 46 1018.4
20190324232922 52 237 3.0 12.0 0.00 0.00 0.00 46 1018.4
20190324232411 52 216 4.0 10.0 0.00 0.00 0.00 45 1018.4
20190324231912 52 240 4.0 10.0 0.00 0.00 0.00 45 1018.6
20190324231406 52 247 4.0 9.0 0.00 0.00 0.00 44 1018.4
20190324230911 52 227 4.0 12.0 0.00 0.00 0.00 44 1018.4
20190324230405 53 222 5.0 14.0 0.00 0.00 0.00 42 1018.4
20190324225907 53 227 7.0 14.0 0.00 0.00 0.00 41 1018.3
20190324225404 53 215 5.0 11.0 0.00 0.00 0.00 36 1018.2
20190324224918 53 220 3.0 11.0 0.00 0.00 0.00 35 1018.2
20190324224404 53 235 3.0 7.0 0.00 0.00 0.00 34 1018.1
20190324223908 54 258 3.0 7.0 0.00 0.00 0.00 35 1018.1
20190324223406 54 267 2.0 5.0 0.00 0.00 0.00 34 1018.1
20190324222901 54 244 4.0 11.0 0.00 0.00 0.00 34 1018.1
20190324222403 54 234 4.0 11.0 0.00 0.00 0.00 33 1018.0
20190324221904 54 284 3.0 8.0 0.00 0.00 0.00 34 1018.0
20190324221351 54 220 3.0 7.0 0.00 0.00 0.00 33 1017.9
20190324220859 54 223 2.0 5.0 0.00 0.00 0.00 33 1017.9
20190324220353 54 264 2.0 5.0 0.00 0.00 0.00 34 1017.9
20190324215853 54 252 2.0 5.0 0.00 0.00 0.00 34 1017.8
20190324215340 55 222 2.0 5.0 0.00 0.00 0.00 34 1017.7
20190324214845 55 279 2.0 7.0 0.00 0.00 0.00 33 1017.7
20190324214338 55 273 3.0 8.0 0.00 0.00 0.00 32 1017.7
20190324213843 55 240 3.0 8.0 0.00 0.00 0.00 31 1017.7
20190324213336 55 228 3.0 7.0 0.00 0.00 0.00 30 1017.6
20190324212852 55 236 3.0 11.0 0.00 0.00 0.00 31 1017.6
20190324212336 55 227 3.0 11.0 0.00 0.00 0.00 30 1017.6
20190324211826 55 227 3.0 9.0 0.00 0.00 0.00 31 1017.6
20190324211325 55 262 4.0 9.0 0.00 0.00 0.00 30 1017.6
20190324210825 55 279 5.0 11.0 0.00 0.00 0.00 30 1017.6
20190324210326 56 244 5.0 11.0 0.00 0.00 0.00 30 1017.6
20190324205823 56 205 4.0 10.0 0.00 0.00 0.00 30 1017.7
20190324205323 56 212 4.0 12.0 0.00 0.00 0.00 31 1017.6
20190324204821 56 258 5.0 14.0 0.00 0.00 0.00 30 1017.6
20190324204323 56 178 4.0 14.0 0.00 0.00 0.00 31 1017.5
20190324203827 56 242 4.0 8.0 0.00 0.00 0.00 31 1017.5
20190324203323 56 208 3.0 10.0 0.00 0.00 0.00 31 1017.5
20190324202821 56 305 3.0 10.0 0.00 0.00 0.00 31 1017.5
20190324202319 56 183 3.0 8.0 0.00 0.00 0.00 31 1017.5
20190324201831 56 254 3.0 8.0 0.00 0.00 0.00 30 1017.5
20190324201320 55 201 3.0 9.0 0.00 0.00 0.00 31 1017.5
20190324200814 55 246 5.0 11.0 0.00 0.00 0.00 32 1017.5
20190324200307 56 255 4.0 11.0 0.00 0.00 0.00 30 1017.7
20190324195807 55 238 3.0 8.0 0.00 0.00 0.00 33 1017.7
20190324195302 55 273 4.0 12.0 0.00 0.00 0.00 32 1017.8
20190324194801 55 252 6.0 12.0 0.00 0.00 0.00 33 1017.9
20190324194301 55 221 6.0 10.0 0.00 0.00 0.00 32 1018.0
20190324193754 55 202 5.0 11.0 0.00 0.00 0.00 32 1018.0
20190324193254 55 197 4.0 11.0 0.00 0.00 0.00 32 1018.1
20190324192753 55 199 3.0 9.0 0.00 0.00 0.00 32 1018.1
20190324192252 54 231 3.0 7.0 0.00 0.00 0.00 32 1018.2
20190324191752 55 227 3.0 9.0 0.00 0.00 0.00 31 1018.3
20190324191249 55 225 3.0 9.0 0.00 0.00 0.00 33 1018.4
20190324190749 54 225 4.0 8.0 0.00 0.00 0.00 33 1018.4
20190324190249 55 266 3.0 8.0 0.00 0.00 0.00 32 1018.6
20190324185749 55 222 2.0 5.0 0.00 0.00 0.00 32 1018.6
20190324185251 55 257 2.0 7.0 0.00 0.00 0.00 33 1018.7
20190324184748 54 224 3.0 7.0 0.00 0.00 0.00 34 1018.9
20190324184248 54 212 3.0 9.0 0.00 0.00 0.00 34 1019.1
20190324183744 54 221 3.0 9.0 0.00 0.00 0.00 33 1019.2
20190324183244 54 207 3.0 9.0 0.00 0.00 0.00 33 1019.3
20190324182745 54 229 3.0 6.0 0.00 0.00 0.00 33 1019.4
20190324182241 54 277 3.0 7.0 0.00 0.00 0.00 34 1019.5
20190324181737 53 238 3.0 7.0 0.00 0.00 0.00 36 1019.6
20190324181237 53 320 3.0 8.0 0.00 0.00 0.00 35 1019.7
20190324180731 53 257 3.0 8.0 0.00 0.00 0.00 35 1019.9
20190324180229 53 222 3.0 8.0 0.00 0.00 0.00 35 1020.0
20190324175730 53 207 2.0 8.0 0.00 0.00 0.00 35 1020.1
20190324175229 52 288 3.0 8.0 0.00 0.00 0.00 36 1020.1
20190324174727 52 200 4.0 8.0 0.00 0.00 0.00 35 1020.1
20190324174225 52 232 3.0 7.0 0.00 0.00 0.00 35 1020.2
20190324173725 52 272 3.0 7.0 0.00 0.00 0.00 36 1020.4
20190324173227 51 258 3.0 7.0 0.00 0.00 0.00 36 1020.5
20190324172725 51 232 3.0 7.0 0.00 0.00 0.00 36 1020.4
20190324172225 51 266 3.0 6.0 0.00 0.00 0.00 38 1020.5
20190324171725 51 232 4.0 7.0 0.00 0.00 0.00 37 1020.6
20190324171227 51 204 4.0 7.0 0.00 0.00 0.00 36 1020.6
20190324170723 50 229 4.0 7.0 0.00 0.00 0.00 37 1020.7
20190324170221 50 239 4.0 7.0 0.00 0.00 0.00 37 1020.6
20190324165721 50 229 4.0 9.0 0.00 0.00 0.00 37 1020.6
20190324165221 50 227 4.0 9.0 0.00 0.00 0.00 36 1020.6
20190324164721 50 184 4.0 11.0 0.00 0.00 0.00 38 1020.7
20190324164218 49 173 5.0 11.0 0.00 0.00 0.00 36 1020.7
20190324163718 49 212 4.0 10.0 0.00 0.00 0.00 38 1020.7
20190324163217 49 222 4.0 10.0 0.00 0.00 0.00 37 1020.9
20190324162718 48 217 4.0 8.0 0.00 0.00 0.00 41 1021.0
20190324162218 47 223 4.0 8.0 0.00 0.00 0.00 43 1021.1
20190324161718 46 224 3.0 7.0 0.00 0.00 0.00 48 1021.1
20190324161218 46 216 3.0 6.0 0.00 0.00 0.00 50 1021.2
20190324160709 45 198 3.0 6.0 0.00 0.00 0.00 49 1021.3
20190324160208 45 202 2.0 6.0 0.00 0.00 0.00 50 1021.0
20190324155657 44 196 3.0 6.0 0.00 0.00 0.00 50 1021.0
20190324155158 44 223 2.0 5.0 0.00 0.00 0.00 49 1021.1
20190324154644 44 171 2.0 5.0 0.00 0.00 0.00 50 1021.0
20190324154138 43 215 3.0 6.0 0.00 0.00 0.00 50 1021.1
20190324153637 43 208 4.0 6.0 0.00 0.00 0.00 50 1021.3
20190324153124 43 213 4.0 8.0 0.00 0.00 0.00 49 1021.4
20190324152622 43 185 4.0 8.0 0.00 0.00 0.00 49 1021.7
20190324152124 42 233 3.0 6.0 0.00 0.00 0.00 50 1021.8
20190324151621 42 227 2.0 4.0 0.00 0.00 0.00 53 1021.5
20190324151116 41 221 1.0 4.0 0.00 0.00 0.00 54 1021.4
20190324150615 40 221 1.0 4.0 0.00 0.00 0.00 59 1021.5
20190324150108 39 281 0.0 2.0 0.00 0.00 0.00 60 1021.5
20190324145607 39 281 0.0 2.0 0.00 0.00 0.00 61 1021.5
20190324145100 38 281 1.0 3.0 0.00 0.00 0.00 61 1021.7
20190324144556 38 281 2.0 3.0 0.00 0.00 0.00 64 1022.1
20190324144053 37 281 2.0 3.0 0.00 0.00 0.00 65 1021.9
20190324143537 36 110 2.0 3.0 0.00 0.00 0.00 64 1020.8
20190324143035 36 109 2.0 3.0 0.00 0.00 0.00 65 1021.0
20190324142529 36 97 2.0 3.0 0.00 0.00 0.00 64 1021.4
20190324142028 36 306 1.0 3.0 0.00 0.00 0.00 64 1021.8
20190324141529 36 306 0.0 2.0 0.00 0.00 0.00 65 1022.1
20190324141024 36 306 0.0 0.0 0.00 0.00 0.00 66 1022.3
20190324140518 36 306 0.0 2.0 0.00 0.00 0.00 67 1022.5
20190324140012 36 306 1.0 3.0 0.00 0.00 0.00 68 1022.6
20190324135501 36 306 0.0 3.0 0.00 0.00 0.00 67 1022.7
20190324134957 36 306 0.0 0.0 0.00 0.00 0.00 66 1022.7
20190324134458 36 306 0.0 0.0 0.00 0.00 0.00 67 1022.6
20190324133950 35 306 0.0 0.0 0.00 0.00 0.00 67 1022.8
20190324133447 35 306 0.0 0.0 0.00 0.00 0.00 67 1022.9
20190324132942 35 306 0.0 0.0 0.00 0.00 0.00 67 1022.9
20190324132439 34 306 0.0 0.0 0.00 0.00 0.00 67 1022.9
20190324131932 34 306 0.0 0.0 0.00 0.00 0.00 67 1023.0
20190324131428 33 306 0.0 0.0 0.00 0.00 0.00 69 1023.0
20190324130924 33 306 0.0 0.0 0.00 0.00 0.00 71 1023.0
20190324130419 33 306 0.0 0.0 0.00 0.00 0.00 69 1022.9
20190324125913 32 306 0.0 0.0 0.00 0.00 0.00 70 1023.0
20190324125406 32 306 0.0 0.0 0.00 0.00 0.00 71 1023.0
20190324124903 32 306 0.0 0.0 0.00 0.00 0.00 71 1023.0
20190324124354 31 306 0.0 0.0 0.00 0.00 0.00 72 1022.9
20190324123855 31 306 0.0 0.0 0.00 0.00 0.00 73 1022.9
20190324123348 31 306 0.0 0.0 0.00 0.00 0.00 74 1022.8
20190324122845 31 306 0.0 0.0 0.00 0.00 0.00 75 1022.8
20190324122340 30 306 0.0 0.0 0.00 0.00 0.00 75 1022.9
20190324121835 30 306 0.0 0.0 0.00 0.00 0.00 74 1023.1
20190324121331 30 306 0.0 0.0 0.00 0.00 0.00 74 1023.1
20190324120827 29 306 0.0 0.0 0.00 0.00 0.00 74 1023.2
20190324120321 29 306 0.0 0.0 0.00 0.00 0.00 77 1023.1
20190324115816 29 306 0.0 0.0 0.00 0.00 0.00 77 1023.0
20190324115306 29 306 0.0 0.0 0.00 0.00 0.00 75 1023.0
20190324114803 28 306 0.0 0.0 0.00 0.00 0.00 75 1023.1
20190324114259 28 306 0.0 0.0 0.00 0.00 0.00 77 1023.1
20190324113758 28 306 0.0 0.0 0.00 0.00 0.00 77 1023.1
20190324113253 28 306 0.0 0.0 0.00 0.00 0.00 78 1023.0
20190324112748 28 306 0.0 0.0 0.00 0.00 0.00 77 1023.0
20190324112244 27 306 0.0 0.0 0.00 0.00 0.00 78 1022.9
20190324111739 27 306 0.0 0.0 0.00 0.00 0.00 78 1023.0
20190324111234 27 306 0.0 0.0 0.00 0.00 0.00 78 1022.9
20190324110730 27 306 0.0 0.0 0.00 0.00 0.00 78 1022.9
20190324110224 27 306 0.0 0.0 0.00 0.00 0.00 79 1022.8
20190324105720 27 306 0.0 0.0 0.00 0.00 0.00 79 1022.8
20190324105212 27 306 0.0 0.0 0.00 0.00 0.00 79 1022.9
20190324104711 27 306 0.0 0.0 0.00 0.00 0.00 78 1022.8
20190324104206 27 306 0.0 0.0 0.00 0.00 0.00 77 1023.0
20190324103658 27 306 0.0 0.0 0.00 0.00 0.00 76 1023.0
20190324103157 27 306 0.0 0.0 0.00 0.00 0.00 76 1023.0
20190324102653 27 306 0.0 0.0 0.00 0.00 0.00 75 1023.1
20190324102145 27 306 0.0 0.0 0.00 0.00 0.00 75 1023.0
20190324101642 27 306 0.0 0.0 0.00 0.00 0.00 76 1023.0
20190324101130 27 306 0.0 0.0 0.00 0.00 0.00 75 1023.0
20190324100627 27 306 0.0 0.0 0.00 0.00 0.00 74 1023.0
20190324100124 27 306 0.0 0.0 0.00 0.00 0.00 75 1023.1
20190324095625 27 306 0.0 0.0 0.00 0.00 0.00 75 1023.1
20190324095120 27 306 0.0 0.0 0.00 0.00 0.00 74 1023.1
20190324094616 26 306 0.0 0.0 0.00 0.00 0.00 74 1023.1
20190324094111 26 306 0.0 0.0 0.00 0.00 0.00 75 1023.0
20190324093607 26 306 0.0 0.0 0.00 0.00 0.00 75 1023.1
20190324093100 26 306 0.0 0.0 0.00 0.00 0.00 76 1023.0
20190324092556 27 306 0.0 0.0 0.00 0.00 0.00 75 1023.0
20190324092052 27 306 0.0 0.0 0.00 0.00 0.00 74 1023.0
20190324091546 27 306 0.0 0.0 0.00 0.00 0.00 73 1023.0
20190324091043 27 306 0.0 0.0 0.00 0.00 0.00 72 1022.9
20190324090535 27 306 0.0 0.0 0.00 0.00 0.00 73 1022.9
20190324090033 27 306 0.0 0.0 0.00 0.00 0.00 73 1022.8
20190324085529 27 306 0.0 0.0 0.00 0.00 0.00 74 1022.8
20190324085024 27 306 0.0 0.0 0.00 0.00 0.00 74 1022.7
20190324084518 27 306 0.0 0.0 0.00 0.00 0.00 73 1022.8
20190324084014 27 306 0.0 0.0 0.00 0.00 0.00 74 1022.7
20190324083506 27 306 0.0 0.0 0.00 0.00 0.00 73 1022.7
20190324083005 27 306 0.0 0.0 0.00 0.00 0.00 72 1022.7
20190324082500 27 306 0.0 0.0 0.00 0.00 0.00 72 1022.7
20190324081958 27 306 0.0 0.0 0.00 0.00 0.00 72 1022.7
20190324081450 27 306 0.0 0.0 0.00 0.00 0.00 71 1022.7
20190324080940 27 306 0.0 0.0 0.00 0.00 0.00 71 1022.8
20190324080432 27 306 0.0 0.0 0.00 0.00 0.00 71 1022.8
20190324075929 27 306 0.0 0.0 0.00 0.00 0.00 71 1022.9
20190324075424 27 306 0.0 0.0 0.00 0.00 0.00 71 1023.0
20190324074920 27 306 0.0 0.0 0.00 0.00 0.00 70 1023.0
20190324074414 27 306 0.0 0.0 0.00 0.00 0.00 70 1023.0
20190324073910 27 306 0.0 0.0 0.00 0.00 0.00 70 1023.1
20190324073406 27 306 0.0 0.0 0.00 0.00 0.00 70 1023.0
20190324072900 27 306 0.0 0.0 0.00 0.00 0.00 69 1023.1
20190324072357 28 306 0.0 0.0 0.00 0.00 0.00 69 1023.1
20190324071853 28 306 0.0 0.0 0.00 0.00 0.00 68 1023.1
20190324071348 28 306 0.0 0.0 0.00 0.00 0.00 68 1023.1
20190324070842 28 306 0.0 0.0 0.00 0.00 0.00 66 1023.1
20190324070338 28 306 0.0 0.0 0.00 0.00 0.00 68 1023.1
20190324065832 28 306 0.0 0.0 0.00 0.00 0.00 67 1023.1
20190324065328 28 306 0.0 0.0 0.00 0.00 0.00 68 1023.0
20190324064825 28 306 0.0 0.0 0.00 0.00 0.00 67 1023.1
20190324064318 28 306 0.0 0.0 0.00 0.00 0.00 68 1023.1
20190324063814 28 306 0.0 0.0 0.00 0.00 0.00 70 1023.1
20190324063310 29 306 0.0 0.0 0.00 0.00 0.00 68 1023.2
20190324062805 29 306 0.0 0.0 0.00 0.00 0.00 68 1023.2
20190324062300 29 306 0.0 0.0 0.00 0.00 0.00 68 1023.1
20190324061756 29 306 0.0 0.0 0.00 0.00 0.00 67 1023.0
20190324061250 29 306 0.0 0.0 0.00 0.00 0.00 67 1023.1
20190324060746 29 306 0.0 0.0 0.00 0.00 0.00 66 1023.2
20190324060242 29 306 0.0 0.0 0.00 0.00 0.00 66 1023.2
20190324055737 29 306 0.0 0.0 0.00 0.00 0.00 65 1023.2
20190324055232 29 306 0.0 0.0 0.00 0.00 0.00 65 1023.2
20190324054722 29 306 0.0 0.0 0.00 0.00 0.00 65 1023.3
20190324054223 29 306 0.0 0.0 0.00 0.00 0.00 63 1023.4
20190324053718 29 306 0.0 0.0 0.00 0.00 0.00 63 1023.5
20190324053214 29 306 0.0 0.0 0.00 0.00 0.00 63 1023.5
20190324052708 29 306 0.0 0.0 0.00 0.00 0.00 63 1023.5
20190324052204 29 306 0.0 0.0 0.00 0.00 0.00 64 1023.5
20190324051701 29 306 0.0 0.0 0.00 0.00 0.00 64 1023.5
20190324051154 29 306 0.0 0.0 0.00 0.00 0.00 63 1023.4
20190324050650 29 306 0.0 0.0 0.00 0.00 0.00 62 1023.5
20190324050147 29 306 0.0 0.0 0.00 0.00 0.00 61 1023.5
20190324045640 30 306 0.0 0.0 0.00 0.00 0.00 62 1023.6
20190324045135 30 306 0.0 0.0 0.00 0.00 0.00 61 1023.6
20190324044630 30 306 0.0 0.0 0.00 0.00 0.00 60 1023.6